sensor_id;sensor_type;location;lat;lon;timestamp;P1;durP1;ratioP1;P2;durP2;ratioP2
4274;SDS011;2151;50.988;11.068;2023-07-13T03:06:28;122.03;;;8.47;;
4274;SDS011;2151;50.988;11.068;2023-07-13T03:08:56;122.20;;;9.30;;
4274;SDS011;2151;50.988;11.068;2023-07-13T03:11:23;126.50;;;8.77;;
4274;SDS011;2151;50.988;11.068;2023-07-13T03:13:49;121.70;;;10.80;;
4274;SDS011;2151;50.988;11.068;2023-07-13T03:16:16;121.30;;;9.80;;
4274;SDS011;2151;50.988;11.068;2023-07-13T03:18:45;122.37;;;9.90;;
4274;SDS011;2151;50.988;11.068;2023-07-13T03:21:12;123.47;;;10.13;;
4274;SDS011;2151;50.988;11.068;2023-07-13T03:23:39;121.20;;;9.60;;
4274;SDS011;2151;50.988;11.068;2023-07-13T03:26:07;123.83;;;9.83;;
4274;SDS011;2151;50.988;11.068;2023-07-13T03:28:36;126.07;;;9.60;;
4274;SDS011;2151;50.988;11.068;2023-07-13T03:31:05;123.50;;;8.73;;
4274;SDS011;2151;50.988;11.068;2023-07-13T03:33:33;123.73;;;8.83;;
4274;SDS011;2151;50.988;11.068;2023-07-13T03:36:00;121.20;;;8.43;;
4274;SDS011;2151;50.988;11.068;2023-07-13T03:38:26;121.00;;;8.20;;
4274;SDS011;2151;50.988;11.068;2023-07-13T03:40:53;124.40;;;8.13;;
4274;SDS011;2151;50.988;11.068;2023-07-13T03:43:20;122.60;;;8.27;;
4274;SDS011;2151;50.988;11.068;2023-07-13T03:45:46;120.70;;;7.47;;
4274;SDS011;2151;50.988;11.068;2023-07-13T03:48:13;122.90;;;7.60;;
4274;SDS011;2151;50.988;11.068;2023-07-13T03:50:40;122.17;;;8.07;;
4274;SDS011;2151;50.988;11.068;2023-07-13T03:53:07;120.37;;;7.70;;
4274;SDS011;2151;50.988;11.068;2023-07-13T03:55:33;121.57;;;8.20;;
4274;SDS011;2151;50.988;11.068;2023-07-13T03:58:46;121.90;;;8.23;;
4274;SDS011;2151;50.988;11.068;2023-07-13T04:00:50;120.77;;;8.53;;
4274;SDS011;2151;50.988;11.068;2023-07-13T04:03:16;120.87;;;7.87;;
4274;SDS011;2151;50.988;11.068;2023-07-13T04:05:43;125.40;;;8.63;;
4274;SDS011;2151;50.988;11.068;2023-07-13T04:08:10;120.50;;;8.27;;
4274;SDS011;2151;50.988;11.068;2023-07-13T04:10:36;122.13;;;8.00;;
4274;SDS011;2151;50.988;11.068;2023-07-13T04:13:03;126.03;;;8.97;;
4274;SDS011;2151;50.988;11.068;2023-07-13T04:15:30;122.73;;;8.50;;
4274;SDS011;2151;50.988;11.068;2023-07-13T04:17:57;125.50;;;8.97;;
4274;SDS011;2151;50.988;11.068;2023-07-13T04:20:24;127.27;;;8.90;;
4274;SDS011;2151;50.988;11.068;2023-07-13T04:22:52;120.17;;;8.00;;
4274;SDS011;2151;50.988;11.068;2023-07-13T04:25:21;125.90;;;8.40;;
4274;SDS011;2151;50.988;11.068;2023-07-13T04:27:48;121.87;;;8.17;;
4274;SDS011;2151;50.988;11.068;2023-07-13T04:30:16;121.60;;;8.23;;
4274;SDS011;2151;50.988;11.068;2023-07-13T04:32:42;122.90;;;8.20;;
4274;SDS011;2151;50.988;11.068;2023-07-13T04:35:09;121.50;;;8.20;;
4274;SDS011;2151;50.988;11.068;2023-07-13T04:37:35;124.40;;;8.30;;
4274;SDS011;2151;50.988;11.068;2023-07-13T04:40:02;123.00;;;8.37;;
4274;SDS011;2151;50.988;11.068;2023-07-13T04:42:29;119.23;;;7.67;;
4274;SDS011;2151;50.988;11.068;2023-07-13T04:44:56;120.50;;;7.37;;
4274;SDS011;2151;50.988;11.068;2023-07-13T04:47:23;119.27;;;7.60;;
4274;SDS011;2151;50.988;11.068;2023-07-13T04:49:49;119.40;;;7.60;;
4274;SDS011;2151;50.988;11.068;2023-07-13T04:52:16;118.60;;;7.30;;
4274;SDS011;2151;50.988;11.068;2023-07-13T04:54:42;124.77;;;7.20;;
4274;SDS011;2151;50.988;11.068;2023-07-13T04:57:09;120.00;;;7.40;;
4274;SDS011;2151;50.988;11.068;2023-07-13T04:59:35;137.97;;;7.40;;
4274;SDS011;2151;50.988;11.068;2023-07-13T05:02:02;118.60;;;7.10;;
4274;SDS011;2151;50.988;11.068;2023-07-13T05:04:29;120.40;;;7.30;;
4274;SDS011;2151;50.988;11.068;2023-07-13T05:06:56;118.87;;;6.90;;
4274;SDS011;2151;50.988;11.068;2023-07-13T05:09:22;117.67;;;6.83;;
4274;SDS011;2151;50.988;11.068;2023-07-13T05:11:49;117.07;;;6.97;;
4274;SDS011;2151;50.988;11.068;2023-07-13T05:14:15;118.67;;;7.27;;
4274;SDS011;2151;50.988;11.068;2023-07-13T05:16:42;116.50;;;6.70;;
4274;SDS011;2151;50.988;11.068;2023-07-13T05:19:09;118.53;;;6.17;;
4274;SDS011;2151;50.988;11.068;2023-07-13T05:21:36;117.77;;;6.07;;
4274;SDS011;2151;50.988;11.068;2023-07-13T05:24:03;117.30;;;6.30;;
4274;SDS011;2151;50.988;11.068;2023-07-13T05:26:48;116.60;;;6.30;;
4274;SDS011;2151;50.988;11.068;2023-07-13T05:29:15;117.30;;;6.23;;
4274;SDS011;2151;50.988;11.068;2023-07-13T05:31:41;115.30;;;5.90;;
4274;SDS011;2151;50.988;11.068;2023-07-13T05:34:08;124.30;;;6.60;;
4274;SDS011;2151;50.988;11.068;2023-07-13T05:36:35;117.40;;;6.13;;
4274;SDS011;2151;50.988;11.068;2023-07-13T05:39:02;113.70;;;5.40;;
4274;SDS011;2151;50.988;11.068;2023-07-13T05:41:29;116.67;;;6.07;;
4274;SDS011;2151;50.988;11.068;2023-07-13T05:43:56;115.07;;;6.00;;
4274;SDS011;2151;50.988;11.068;2023-07-13T05:46:23;119.20;;;6.10;;
4274;SDS011;2151;50.988;11.068;2023-07-13T05:48:49;117.27;;;5.97;;
4274;SDS011;2151;50.988;11.068;2023-07-13T05:51:16;119.30;;;6.00;;
4274;SDS011;2151;50.988;11.068;2023-07-13T05:53:43;115.97;;;5.97;;
4274;SDS011;2151;50.988;11.068;2023-07-13T05:56:09;115.30;;;6.07;;
4274;SDS011;2151;50.988;11.068;2023-07-13T05:58:36;117.00;;;6.57;;
4274;SDS011;2151;50.988;11.068;2023-07-13T06:01:05;119.43;;;5.83;;
4274;SDS011;2151;50.988;11.068;2023-07-13T06:03:33;116.20;;;6.00;;
4274;SDS011;2151;50.988;11.068;2023-07-13T06:06:00;121.10;;;5.40;;
4274;SDS011;2151;50.988;11.068;2023-07-13T06:08:27;113.60;;;5.90;;
4274;SDS011;2151;50.988;11.068;2023-07-13T06:10:54;114.50;;;5.60;;
4274;SDS011;2151;50.988;11.068;2023-07-13T06:13:25;113.00;;;5.67;;
4274;SDS011;2151;50.988;11.068;2023-07-13T06:15:51;114.40;;;5.43;;
4274;SDS011;2151;50.988;11.068;2023-07-13T06:18:18;114.60;;;5.50;;
4274;SDS011;2151;50.988;11.068;2023-07-13T06:20:45;112.07;;;5.10;;
4274;SDS011;2151;50.988;11.068;2023-07-13T06:23:11;115.50;;;5.80;;
4274;SDS011;2151;50.988;11.068;2023-07-13T06:25:38;114.37;;;5.50;;
4274;SDS011;2151;50.988;11.068;2023-07-13T06:28:06;112.77;;;5.50;;
4274;SDS011;2151;50.988;11.068;2023-07-13T06:30:32;119.00;;;5.33;;
4274;SDS011;2151;50.988;11.068;2023-07-13T06:32:59;114.50;;;5.50;;
4274;SDS011;2151;50.988;11.068;2023-07-13T06:35:26;120.60;;;5.47;;
4274;SDS011;2151;50.988;11.068;2023-07-13T06:37:52;113.27;;;5.67;;
4274;SDS011;2151;50.988;11.068;2023-07-13T06:40:19;113.57;;;5.50;;
4274;SDS011;2151;50.988;11.068;2023-07-13T06:42:46;112.27;;;5.47;;
4274;SDS011;2151;50.988;11.068;2023-07-13T06:45:12;116.27;;;5.00;;
4274;SDS011;2151;50.988;11.068;2023-07-13T06:47:39;113.63;;;5.27;;
4274;SDS011;2151;50.988;11.068;2023-07-13T06:50:05;112.00;;;5.17;;
4274;SDS011;2151;50.988;11.068;2023-07-13T06:52:32;112.70;;;5.30;;
4274;SDS011;2151;50.988;11.068;2023-07-13T06:54:59;115.70;;;5.50;;
4274;SDS011;2151;50.988;11.068;2023-07-13T06:57:25;110.57;;;5.00;;
4274;SDS011;2151;50.988;11.068;2023-07-13T06:59:52;115.07;;;5.30;;
4274;SDS011;2151;50.988;11.068;2023-07-13T07:02:19;117.30;;;5.13;;
4274;SDS011;2151;50.988;11.068;2023-07-13T07:04:45;117.13;;;5.47;;
4274;SDS011;2151;50.988;11.068;2023-07-13T07:07:12;113.67;;;5.47;;
4274;SDS011;2151;50.988;11.068;2023-07-13T07:09:38;112.90;;;5.43;;
4274;SDS011;2151;50.988;11.068;2023-07-13T07:12:05;118.20;;;5.13;;
4274;SDS011;2151;50.988;11.068;2023-07-13T07:14:32;113.00;;;5.40;;
4274;SDS011;2151;50.988;11.068;2023-07-13T07:17:00;115.30;;;5.20;;
4274;SDS011;2151;50.988;11.068;2023-07-13T07:19:29;114.87;;;5.57;;
4274;SDS011;2151;50.988;11.068;2023-07-13T07:21:56;111.37;;;4.60;;
4274;SDS011;2151;50.988;11.068;2023-07-13T07:24:22;112.73;;;4.97;;
4274;SDS011;2151;50.988;11.068;2023-07-13T07:26:49;112.07;;;4.67;;
4274;SDS011;2151;50.988;11.068;2023-07-13T07:29:18;109.70;;;4.80;;
4274;SDS011;2151;50.988;11.068;2023-07-13T07:31:49;114.70;;;6.10;;
4274;SDS011;2151;50.988;11.068;2023-07-13T07:34:30;110.90;;;4.43;;
4274;SDS011;2151;50.988;11.068;2023-07-13T07:36:59;111.20;;;5.00;;
4274;SDS011;2151;50.988;11.068;2023-07-13T07:39:29;111.10;;;5.10;;
4274;SDS011;2151;50.988;11.068;2023-07-13T07:41:56;110.37;;;4.90;;
4274;SDS011;2151;50.988;11.068;2023-07-13T07:44:23;110.00;;;4.80;;
4274;SDS011;2151;50.988;11.068;2023-07-13T07:46:50;110.60;;;4.70;;
4274;SDS011;2151;50.988;11.068;2023-07-13T07:49:16;111.77;;;4.83;;
4274;SDS011;2151;50.988;11.068;2023-07-13T07:51:43;110.23;;;5.23;;
4274;SDS011;2151;50.988;11.068;2023-07-13T07:54:09;110.67;;;5.10;;
4274;SDS011;2151;50.988;11.068;2023-07-13T07:56:43;108.47;;;4.50;;
4274;SDS011;2151;50.988;11.068;2023-07-13T07:59:12;111.17;;;5.43;;
4274;SDS011;2151;50.988;11.068;2023-07-13T08:01:42;110.50;;;4.67;;
4274;SDS011;2151;50.988;11.068;2023-07-13T08:04:29;109.87;;;5.00;;
4274;SDS011;2151;50.988;11.068;2023-07-13T08:06:58;112.80;;;4.87;;
4274;SDS011;2151;50.988;11.068;2023-07-13T08:09:25;111.47;;;4.37;;
4274;SDS011;2151;50.988;11.068;2023-07-13T08:11:52;108.90;;;4.57;;
4274;SDS011;2151;50.988;11.068;2023-07-13T08:14:23;109.47;;;4.70;;
4274;SDS011;2151;50.988;11.068;2023-07-13T08:17:04;109.77;;;4.80;;
4274;SDS011;2151;50.988;11.068;2023-07-13T08:19:31;106.40;;;4.20;;
4274;SDS011;2151;50.988;11.068;2023-07-13T08:21:58;108.60;;;4.40;;
4274;SDS011;2151;50.988;11.068;2023-07-13T08:24:24;108.20;;;5.07;;
4274;SDS011;2151;50.988;11.068;2023-07-13T08:26:51;106.60;;;4.13;;
4274;SDS011;2151;50.988;11.068;2023-07-13T08:29:18;107.90;;;4.13;;
4274;SDS011;2151;50.988;11.068;2023-07-13T08:31:45;109.90;;;4.03;;
4274;SDS011;2151;50.988;11.068;2023-07-13T08:34:11;105.57;;;4.20;;
4274;SDS011;2151;50.988;11.068;2023-07-13T08:36:41;107.87;;;3.93;;
4274;SDS011;2151;50.988;11.068;2023-07-13T08:39:07;105.70;;;3.70;;
4274;SDS011;2151;50.988;11.068;2023-07-13T08:41:34;105.73;;;4.13;;
4274;SDS011;2151;50.988;11.068;2023-07-13T08:44:01;106.77;;;4.33;;
4274;SDS011;2151;50.988;11.068;2023-07-13T08:46:32;105.20;;;4.07;;
4274;SDS011;2151;50.988;11.068;2023-07-13T08:49:16;106.80;;;3.90;;
4274;SDS011;2151;50.988;11.068;2023-07-13T08:51:50;103.97;;;4.03;;
4274;SDS011;2151;50.988;11.068;2023-07-13T08:54:36;103.57;;;3.70;;
4274;SDS011;2151;50.988;11.068;2023-07-13T08:57:15;106.47;;;3.80;;
4274;SDS011;2151;50.988;11.068;2023-07-13T08:59:45;105.80;;;3.60;;
4274;SDS011;2151;50.988;11.068;2023-07-13T09:05:00;103.60;;;3.63;;
4274;SDS011;2151;50.988;11.068;2023-07-13T09:07:39;104.30;;;3.60;;
4274;SDS011;2151;50.988;11.068;2023-07-13T09:15:40;115.83;;;4.10;;
4274;SDS011;2151;50.988;11.068;2023-07-13T09:20:52;107.07;;;3.70;;
4274;SDS011;2151;50.988;11.068;2023-07-13T09:23:22;103.77;;;3.50;;
4274;SDS011;2151;50.988;11.068;2023-07-13T09:25:52;102.37;;;3.47;;
4274;SDS011;2151;50.988;11.068;2023-07-13T09:28:27;103.00;;;3.50;;
4274;SDS011;2151;50.988;11.068;2023-07-13T09:31:06;103.63;;;3.90;;
4274;SDS011;2151;50.988;11.068;2023-07-13T09:33:36;108.17;;;3.60;;
4274;SDS011;2151;50.988;11.068;2023-07-13T09:36:13;102.60;;;3.17;;
4274;SDS011;2151;50.988;11.068;2023-07-13T09:38:48;105.47;;;3.87;;
4274;SDS011;2151;50.988;11.068;2023-07-13T09:44:11;103.43;;;3.40;;
4274;SDS011;2151;50.988;11.068;2023-07-13T09:46:42;102.77;;;3.50;;
4274;SDS011;2151;50.988;11.068;2023-07-13T09:49:22;103.23;;;2.90;;
4274;SDS011;2151;50.988;11.068;2023-07-13T09:51:57;102.80;;;3.30;;
4274;SDS011;2151;50.988;11.068;2023-07-13T09:54:34;102.70;;;3.10;;
4274;SDS011;2151;50.988;11.068;2023-07-13T09:57:02;103.37;;;3.03;;
4274;SDS011;2151;50.988;11.068;2023-07-13T09:59:35;102.27;;;2.90;;
4274;SDS011;2151;50.988;11.068;2023-07-13T10:02:16;103.87;;;3.60;;
4274;SDS011;2151;50.988;11.068;2023-07-13T10:04:57;105.70;;;3.80;;
4274;SDS011;2151;50.988;11.068;2023-07-13T10:07:25;103.80;;;3.20;;
4274;SDS011;2151;50.988;11.068;2023-07-13T10:09:56;104.37;;;3.50;;
4274;SDS011;2151;50.988;11.068;2023-07-13T10:12:29;104.93;;;3.33;;
4274;SDS011;2151;50.988;11.068;2023-07-13T10:14:58;108.33;;;3.40;;
4274;SDS011;2151;50.988;11.068;2023-07-13T10:17:46;104.33;;;3.07;;
4274;SDS011;2151;50.988;11.068;2023-07-13T10:20:13;103.30;;;3.47;;
4274;SDS011;2151;50.988;11.068;2023-07-13T10:25:34;103.90;;;3.57;;
4274;SDS011;2151;50.988;11.068;2023-07-13T10:28:05;105.37;;;3.60;;
4274;SDS011;2151;50.988;11.068;2023-07-13T10:30:38;105.27;;;3.80;;
4274;SDS011;2151;50.988;11.068;2023-07-13T10:33:10;104.60;;;3.77;;
4274;SDS011;2151;50.988;11.068;2023-07-13T10:35:38;111.70;;;4.87;;
4274;SDS011;2151;50.988;11.068;2023-07-13T10:38:10;104.60;;;3.40;;
4274;SDS011;2151;50.988;11.068;2023-07-13T10:43:07;104.40;;;3.80;;
4274;SDS011;2151;50.988;11.068;2023-07-13T10:45:38;103.20;;;3.27;;
4274;SDS011;2151;50.988;11.068;2023-07-13T10:48:06;103.07;;;3.30;;
4274;SDS011;2151;50.988;11.068;2023-07-13T10:50:40;105.60;;;3.10;;
4274;SDS011;2151;50.988;11.068;2023-07-13T10:53:18;107.70;;;3.50;;
4274;SDS011;2151;50.988;11.068;2023-07-13T10:58:33;103.17;;;3.33;;
4274;SDS011;2151;50.988;11.068;2023-07-13T11:01:07;103.07;;;3.60;;
4274;SDS011;2151;50.988;11.068;2023-07-13T11:03:46;104.47;;;3.87;;
4274;SDS011;2151;50.988;11.068;2023-07-13T11:06:29;104.93;;;3.83;;
4274;SDS011;2151;50.988;11.068;2023-07-13T11:09:19;103.80;;;3.70;;
4274;SDS011;2151;50.988;11.068;2023-07-13T11:12:02;104.50;;;3.70;;
4274;SDS011;2151;50.988;11.068;2023-07-13T11:14:37;102.60;;;3.47;;
4274;SDS011;2151;50.988;11.068;2023-07-13T11:19:53;108.20;;;3.60;;
4274;SDS011;2151;50.988;11.068;2023-07-13T11:22:22;104.60;;;3.57;;
4274;SDS011;2151;50.988;11.068;2023-07-13T11:24:57;104.20;;;3.90;;
4274;SDS011;2151;50.988;11.068;2023-07-13T11:27:42;103.90;;;3.47;;
4274;SDS011;2151;50.988;11.068;2023-07-13T11:32:41;103.50;;;3.40;;
4274;SDS011;2151;50.988;11.068;2023-07-13T11:35:12;107.50;;;4.27;;
4274;SDS011;2151;50.988;11.068;2023-07-13T11:37:40;102.87;;;3.67;;
4274;SDS011;2151;50.988;11.068;2023-07-13T11:40:12;102.63;;;3.60;;
4274;SDS011;2151;50.988;11.068;2023-07-13T11:42:39;104.60;;;3.80;;
4274;SDS011;2151;50.988;11.068;2023-07-13T11:45:18;105.47;;;4.10;;
4274;SDS011;2151;50.988;11.068;2023-07-13T11:48:00;105.10;;;3.57;;
4274;SDS011;2151;50.988;11.068;2023-07-13T11:50:27;106.90;;;4.00;;
4274;SDS011;2151;50.988;11.068;2023-07-13T11:52:54;103.30;;;3.70;;
4274;SDS011;2151;50.988;11.068;2023-07-13T11:55:22;103.20;;;3.40;;
4274;SDS011;2151;50.988;11.068;2023-07-13T11:57:59;102.97;;;3.53;;
4274;SDS011;2151;50.988;11.068;2023-07-13T12:00:30;103.17;;;3.77;;
4274;SDS011;2151;50.988;11.068;2023-07-13T12:03:00;103.47;;;3.50;;
4274;SDS011;2151;50.988;11.068;2023-07-13T12:05:28;102.50;;;3.80;;
4274;SDS011;2151;50.988;11.068;2023-07-13T12:07:57;103.07;;;3.50;;
4274;SDS011;2151;50.988;11.068;2023-07-13T12:10:26;102.57;;;3.40;;
4274;SDS011;2151;50.988;11.068;2023-07-13T12:12:57;101.97;;;3.23;;
4274;SDS011;2151;50.988;11.068;2023-07-13T12:15:28;102.80;;;3.37;;
4274;SDS011;2151;50.988;11.068;2023-07-13T12:18:01;100.97;;;2.93;;
4274;SDS011;2151;50.988;11.068;2023-07-13T12:20:35;103.40;;;3.07;;
4274;SDS011;2151;50.988;11.068;2023-07-13T12:23:27;103.20;;;3.57;;
4274;SDS011;2151;50.988;11.068;2023-07-13T12:25:57;100.87;;;2.90;;
4274;SDS011;2151;50.988;11.068;2023-07-13T12:28:32;101.67;;;3.07;;
4274;SDS011;2151;50.988;11.068;2023-07-13T12:31:03;103.10;;;3.40;;
4274;SDS011;2151;50.988;11.068;2023-07-13T12:33:32;104.03;;;3.10;;
4274;SDS011;2151;50.988;11.068;2023-07-13T12:36:00;102.97;;;3.47;;
4274;SDS011;2151;50.988;11.068;2023-07-13T12:38:30;101.80;;;3.30;;
4274;SDS011;2151;50.988;11.068;2023-07-13T12:40:57;101.20;;;2.87;;
4274;SDS011;2151;50.988;11.068;2023-07-13T12:43:24;102.00;;;3.20;;
4274;SDS011;2151;50.988;11.068;2023-07-13T12:46:00;102.70;;;3.37;;
4274;SDS011;2151;50.988;11.068;2023-07-13T12:48:29;102.07;;;3.30;;
4274;SDS011;2151;50.988;11.068;2023-07-13T12:51:12;102.23;;;2.80;;
4274;SDS011;2151;50.988;11.068;2023-07-13T12:53:40;102.73;;;3.20;;
4274;SDS011;2151;50.988;11.068;2023-07-13T12:56:11;102.27;;;3.20;;
4274;SDS011;2151;50.988;11.068;2023-07-13T12:58:45;101.67;;;2.90;;
4274;SDS011;2151;50.988;11.068;2023-07-13T13:01:16;103.23;;;3.50;;
4274;SDS011;2151;50.988;11.068;2023-07-13T13:03:47;101.80;;;3.20;;
4274;SDS011;2151;50.988;11.068;2023-07-13T13:08:46;101.37;;;2.90;;
4274;SDS011;2151;50.988;11.068;2023-07-13T13:11:16;103.30;;;3.20;;
4274;SDS011;2151;50.988;11.068;2023-07-13T13:13:44;102.93;;;2.97;;
4274;SDS011;2151;50.988;11.068;2023-07-13T13:16:14;102.17;;;3.10;;
4274;SDS011;2151;50.988;11.068;2023-07-13T13:18:45;103.53;;;2.70;;
4274;SDS011;2151;50.988;11.068;2023-07-13T13:21:12;102.60;;;2.80;;
4274;SDS011;2151;50.988;11.068;2023-07-13T13:23:38;102.10;;;3.40;;
4274;SDS011;2151;50.988;11.068;2023-07-13T13:26:08;103.63;;;2.90;;
4274;SDS011;2151;50.988;11.068;2023-07-13T13:28:37;103.27;;;3.23;;
4274;SDS011;2151;50.988;11.068;2023-07-13T13:31:04;101.73;;;2.83;;
4274;SDS011;2151;50.988;11.068;2023-07-13T13:33:31;105.60;;;3.10;;
4274;SDS011;2151;50.988;11.068;2023-07-13T13:35:59;103.67;;;3.17;;
4274;SDS011;2151;50.988;11.068;2023-07-13T13:38:26;106.20;;;3.00;;
4274;SDS011;2151;50.988;11.068;2023-07-13T13:40:53;102.13;;;3.07;;
4274;SDS011;2151;50.988;11.068;2023-07-13T13:43:25;101.93;;;3.13;;
4274;SDS011;2151;50.988;11.068;2023-07-13T13:45:53;102.57;;;2.90;;
4274;SDS011;2151;50.988;11.068;2023-07-13T13:48:30;102.37;;;2.70;;
4274;SDS011;2151;50.988;11.068;2023-07-13T13:50:58;101.93;;;3.00;;
4274;SDS011;2151;50.988;11.068;2023-07-13T13:53:26;102.70;;;3.20;;
4274;SDS011;2151;50.988;11.068;2023-07-13T13:55:53;101.37;;;2.93;;
4274;SDS011;2151;50.988;11.068;2023-07-13T13:58:21;104.57;;;3.00;;
4274;SDS011;2151;50.988;11.068;2023-07-13T14:00:47;102.33;;;2.97;;
4274;SDS011;2151;50.988;11.068;2023-07-13T14:03:20;102.67;;;3.57;;
4274;SDS011;2151;50.988;11.068;2023-07-13T14:05:48;103.47;;;3.10;;
4274;SDS011;2151;50.988;11.068;2023-07-13T14:08:16;102.17;;;3.80;;
4274;SDS011;2151;50.988;11.068;2023-07-13T14:10:47;102.10;;;3.03;;
4274;SDS011;2151;50.988;11.068;2023-07-13T14:13:22;109.40;;;2.70;;
4274;SDS011;2151;50.988;11.068;2023-07-13T14:15:53;101.50;;;2.80;;
4274;SDS011;2151;50.988;11.068;2023-07-13T14:18:20;105.50;;;4.20;;
4274;SDS011;2151;50.988;11.068;2023-07-13T14:20:47;101.57;;;2.77;;
4274;SDS011;2151;50.988;11.068;2023-07-13T14:23:15;103.03;;;3.43;;
4274;SDS011;2151;50.988;11.068;2023-07-13T14:25:42;101.77;;;2.80;;
4274;SDS011;2151;50.988;11.068;2023-07-13T14:30:50;100.77;;;3.00;;
4274;SDS011;2151;50.988;11.068;2023-07-13T14:33:17;101.40;;;3.37;;
4274;SDS011;2151;50.988;11.068;2023-07-13T14:35:45;102.37;;;3.53;;
4274;SDS011;2151;50.988;11.068;2023-07-13T14:38:13;103.10;;;3.30;;
4274;SDS011;2151;50.988;11.068;2023-07-13T14:40:42;102.77;;;3.63;;
4274;SDS011;2151;50.988;11.068;2023-07-13T14:43:15;101.93;;;3.50;;
4274;SDS011;2151;50.988;11.068;2023-07-13T14:45:44;102.30;;;3.10;;
4274;SDS011;2151;50.988;11.068;2023-07-13T14:48:22;102.90;;;3.00;;
4274;SDS011;2151;50.988;11.068;2023-07-13T14:50:56;102.93;;;2.80;;
4274;SDS011;2151;50.988;11.068;2023-07-13T14:53:27;105.17;;;2.80;;
4274;SDS011;2151;50.988;11.068;2023-07-13T14:55:54;103.97;;;3.23;;
4274;SDS011;2151;50.988;11.068;2023-07-13T14:58:21;102.37;;;3.00;;
4274;SDS011;2151;50.988;11.068;2023-07-13T15:00:48;101.90;;;3.20;;
4274;SDS011;2151;50.988;11.068;2023-07-13T15:03:18;101.47;;;2.80;;
4274;SDS011;2151;50.988;11.068;2023-07-13T15:05:48;102.47;;;3.27;;
4274;SDS011;2151;50.988;11.068;2023-07-13T15:08:15;109.50;;;3.17;;
4274;SDS011;2151;50.988;11.068;2023-07-13T15:10:42;101.77;;;3.10;;
4274;SDS011;2151;50.988;11.068;2023-07-13T15:15:45;101.10;;;3.20;;
4274;SDS011;2151;50.988;11.068;2023-07-13T15:18:14;103.43;;;2.90;;
4274;SDS011;2151;50.988;11.068;2023-07-13T15:20:43;100.73;;;3.03;;
4274;SDS011;2151;50.988;11.068;2023-07-13T15:23:11;100.90;;;3.30;;
4274;SDS011;2151;50.988;11.068;2023-07-13T15:25:39;101.67;;;3.20;;
4274;SDS011;2151;50.988;11.068;2023-07-13T15:28:06;100.70;;;3.00;;
4274;SDS011;2151;50.988;11.068;2023-07-13T15:30:36;102.20;;;3.23;;
4274;SDS011;2151;50.988;11.068;2023-07-13T15:33:10;101.90;;;3.20;;
4274;SDS011;2151;50.988;11.068;2023-07-13T15:35:38;102.57;;;3.27;;
4274;SDS011;2151;50.988;11.068;2023-07-13T15:38:12;102.87;;;2.90;;
4274;SDS011;2151;50.988;11.068;2023-07-13T15:40:40;102.50;;;3.17;;
4274;SDS011;2151;50.988;11.068;2023-07-13T15:43:14;102.13;;;2.83;;
4274;SDS011;2151;50.988;11.068;2023-07-13T15:45:41;106.73;;;2.90;;
4274;SDS011;2151;50.988;11.068;2023-07-13T15:48:13;107.33;;;3.00;;
4274;SDS011;2151;50.988;11.068;2023-07-13T15:50:51;102.70;;;3.10;;
4274;SDS011;2151;50.988;11.068;2023-07-13T15:53:28;103.67;;;2.90;;
4274;SDS011;2151;50.988;11.068;2023-07-13T15:55:55;106.07;;;3.00;;
4274;SDS011;2151;50.988;11.068;2023-07-13T15:58:23;102.50;;;3.10;;
4274;SDS011;2151;50.988;11.068;2023-07-13T16:00:51;104.20;;;3.30;;
4274;SDS011;2151;50.988;11.068;2023-07-13T16:03:20;102.50;;;3.20;;
4274;SDS011;2151;50.988;11.068;2023-07-13T16:05:47;103.80;;;3.57;;
4274;SDS011;2151;50.988;11.068;2023-07-13T16:08:23;102.70;;;3.10;;
4274;SDS011;2151;50.988;11.068;2023-07-13T16:10:51;104.47;;;3.30;;
4274;SDS011;2151;50.988;11.068;2023-07-13T16:13:19;106.67;;;3.27;;
4274;SDS011;2151;50.988;11.068;2023-07-13T16:15:47;102.97;;;3.30;;
4274;SDS011;2151;50.988;11.068;2023-07-13T16:18:14;104.80;;;2.90;;
4274;SDS011;2151;50.988;11.068;2023-07-13T16:20:45;104.47;;;3.67;;
4274;SDS011;2151;50.988;11.068;2023-07-13T16:23:13;105.07;;;3.67;;
4274;SDS011;2151;50.988;11.068;2023-07-13T16:25:40;103.37;;;3.20;;
4274;SDS011;2151;50.988;11.068;2023-07-13T16:28:08;103.23;;;3.23;;
4274;SDS011;2151;50.988;11.068;2023-07-13T16:30:36;102.37;;;3.27;;
4274;SDS011;2151;50.988;11.068;2023-07-13T16:33:03;102.20;;;3.20;;
4274;SDS011;2151;50.988;11.068;2023-07-13T16:35:33;104.00;;;3.30;;
4274;SDS011;2151;50.988;11.068;2023-07-13T16:38:02;102.60;;;3.10;;
4274;SDS011;2151;50.988;11.068;2023-07-13T16:40:31;102.87;;;3.07;;
4274;SDS011;2151;50.988;11.068;2023-07-13T16:42:59;102.87;;;3.40;;
4274;SDS011;2151;50.988;11.068;2023-07-13T16:45:30;103.90;;;3.37;;
4274;SDS011;2151;50.988;11.068;2023-07-13T16:48:02;112.80;;;3.50;;
4274;SDS011;2151;50.988;11.068;2023-07-13T16:50:37;106.57;;;3.60;;
4274;SDS011;2151;50.988;11.068;2023-07-13T16:53:07;104.10;;;3.20;;
4274;SDS011;2151;50.988;11.068;2023-07-13T16:55:41;105.40;;;3.70;;
4274;SDS011;2151;50.988;11.068;2023-07-13T16:58:08;104.37;;;3.70;;
4274;SDS011;2151;50.988;11.068;2023-07-13T17:00:43;104.57;;;3.57;;
4274;SDS011;2151;50.988;11.068;2023-07-13T17:03:16;106.37;;;4.30;;
4274;SDS011;2151;50.988;11.068;2023-07-13T17:05:45;104.40;;;3.50;;
4274;SDS011;2151;50.988;11.068;2023-07-13T17:10:48;104.50;;;3.80;;
4274;SDS011;2151;50.988;11.068;2023-07-13T17:13:16;104.87;;;3.77;;
4274;SDS011;2151;50.988;11.068;2023-07-13T17:15:44;105.27;;;3.47;;
4274;SDS011;2151;50.988;11.068;2023-07-13T17:18:12;107.57;;;4.20;;
4274;SDS011;2151;50.988;11.068;2023-07-13T17:20:41;106.87;;;3.90;;
4274;SDS011;2151;50.988;11.068;2023-07-13T17:23:12;105.57;;;3.73;;
4274;SDS011;2151;50.988;11.068;2023-07-13T17:25:46;109.10;;;3.80;;
4274;SDS011;2151;50.988;11.068;2023-07-13T17:28:15;103.87;;;3.40;;
4274;SDS011;2151;50.988;11.068;2023-07-13T17:30:43;104.50;;;3.80;;
4274;SDS011;2151;50.988;11.068;2023-07-13T17:33:26;105.03;;;3.63;;
4274;SDS011;2151;50.988;11.068;2023-07-13T17:35:53;103.73;;;3.60;;
4274;SDS011;2151;50.988;11.068;2023-07-13T17:38:22;104.77;;;3.90;;
4274;SDS011;2151;50.988;11.068;2023-07-13T17:40:55;104.63;;;3.60;;
4274;SDS011;2151;50.988;11.068;2023-07-13T17:43:23;111.50;;;3.80;;
4274;SDS011;2151;50.988;11.068;2023-07-13T17:45:50;104.10;;;3.47;;
4274;SDS011;2151;50.988;11.068;2023-07-13T17:48:23;104.27;;;3.60;;
4274;SDS011;2151;50.988;11.068;2023-07-13T17:50:50;105.03;;;3.80;;
4274;SDS011;2151;50.988;11.068;2023-07-13T17:53:23;104.90;;;3.90;;
4274;SDS011;2151;50.988;11.068;2023-07-13T17:55:49;108.17;;;3.60;;
4274;SDS011;2151;50.988;11.068;2023-07-13T17:58:17;104.27;;;3.50;;
4274;SDS011;2151;50.988;11.068;2023-07-13T18:00:45;104.77;;;3.40;;
4274;SDS011;2151;50.988;11.068;2023-07-13T18:03:16;105.73;;;3.60;;
4274;SDS011;2151;50.988;11.068;2023-07-13T18:05:46;104.13;;;3.50;;
4274;SDS011;2151;50.988;11.068;2023-07-13T18:08:26;108.67;;;3.70;;
4274;SDS011;2151;50.988;11.068;2023-07-13T18:10:56;106.07;;;3.70;;
4274;SDS011;2151;50.988;11.068;2023-07-13T18:13:24;107.03;;;3.60;;
4274;SDS011;2151;50.988;11.068;2023-07-13T18:15:52;103.77;;;3.50;;
4274;SDS011;2151;50.988;11.068;2023-07-13T18:18:20;104.57;;;3.37;;
4274;SDS011;2151;50.988;11.068;2023-07-13T18:20:47;108.53;;;3.43;;
4274;SDS011;2151;50.988;11.068;2023-07-13T18:25:45;104.97;;;3.40;;
4274;SDS011;2151;50.988;11.068;2023-07-13T18:28:14;106.40;;;3.50;;
4274;SDS011;2151;50.988;11.068;2023-07-13T18:30:49;105.43;;;3.53;;
4274;SDS011;2151;50.988;11.068;2023-07-13T18:33:31;104.77;;;3.50;;